Time;durP1;ratioP1;P1;durP2;ratioP2;P2;SDS_P1;SDS_P2;PMS_P1;PMS_P2;Temp;Humidity;BMP_temperature;BMP_pressure;BME280_temperature;BME280_humidity;BME280_pressure;Samples;Min_cycle;Max_cycle;Signal;HPM_P1;HPM_P2
2024/04/08 00:00:26;;;;;;;4.68;1.77;;;;;;;14.65;100.00;100893.88;5023951;28;20029;-73
2024/04/08 00:02:51;;;;;;;7.32;1.55;;;;;;;14.63;100.00;100899.28;5020879;28;20087;-74
2024/04/08 00:05:18;;;;;;;4.78;1.50;;;;;;;14.62;100.00;100897.69;5024325;28;20395;-73
2024/04/08 00:07:44;;;;;;;3.38;1.40;;;;;;;14.53;100.00;100899.53;5034490;28;20116;-73
2024/04/08 00:10:10;;;;;;;8.02;2.78;;;;;;;14.50;100.00;100894.66;5045165;28;20160;-73
2024/04/08 00:12:38;;;;;;;5.45;1.95;;;;;;;14.43;100.00;100904.22;5032947;28;20045;-73
2024/04/08 00:15:05;;;;;;;5.32;1.67;;;;;;;14.36;100.00;100896.28;5035205;28;20036;-74
2024/04/08 00:17:30;;;;;;;4.75;1.75;;;;;;;14.33;100.00;100883.59;5026636;28;20061;-73
2024/04/08 00:19:56;;;;;;;6.10;1.58;;;;;;;14.31;100.00;100892.59;5009181;28;20129;-73
2024/04/08 00:22:21;;;;;;;4.30;1.42;;;;;;;14.35;100.00;100881.63;5030963;28;20033;-73
2024/04/08 00:24:51;;;;;;;5.32;1.50;;;;;;;14.37;100.00;100894.47;5030380;28;20033;-74
2024/04/08 00:27:16;;;;;;;4.78;1.25;;;;;;;14.34;100.00;100892.25;5029522;28;20033;-73
2024/04/08 00:29:42;;;;;;;3.25;1.50;;;;;;;14.35;100.00;100888.63;5031503;28;20032;-73
2024/04/08 00:32:07;;;;;;;15.05;1.75;;;;;;;14.35;100.00;100896.44;5025441;28;20091;-73
2024/04/08 00:34:33;;;;;;;4.28;1.40;;;;;;;14.36;100.00;100898.09;5030944;28;20034;-73
2024/04/08 00:36:58;;;;;;;9.70;2.63;;;;;;;14.37;100.00;100886.66;5030562;28;20030;-74
2024/04/08 00:39:24;;;;;;;5.38;1.52;;;;;;;14.34;100.00;100887.03;5025043;28;20036;-73
2024/04/08 00:41:49;;;;;;;4.47;1.52;;;;;;;14.33;100.00;100888.78;5026442;28;20542;-73
2024/04/08 00:44:15;;;;;;;5.78;1.60;;;;;;;14.28;100.00;100887.72;5014096;28;20048;-73
2024/04/08 00:46:41;;;;;;;5.90;1.38;;;;;;;14.22;100.00;100907.50;5023412;28;20124;-73
2024/04/08 00:49:08;;;;;;;6.35;1.60;;;;;;;14.25;100.00;100898.53;5023689;28;20394;-73
2024/04/08 00:51:34;;;;;;;4.95;1.30;;;;;;;14.21;100.00;100903.28;5029911;28;20538;-73
2024/04/08 00:54:01;;;;;;;5.55;1.33;;;;;;;14.20;100.00;100905.09;5029123;28;20037;-73
2024/04/08 00:56:26;;;;;;;5.15;1.48;;;;;;;14.20;100.00;100886.81;5023826;28;20580;-73
2024/04/08 00:58:52;;;;;;;4.25;1.90;;;;;;;14.21;100.00;100893.66;5028847;28;20492;-73
2024/04/08 01:01:18;;;;;;;4.07;1.80;;;;;;;14.23;100.00;100887.47;5029816;28;20031;-73
2024/04/08 01:03:45;;;;;;;3.20;1.50;;;;;;;14.24;100.00;100887.28;5014041;28;20484;-73
2024/04/08 01:06:14;;;;;;;4.68;1.50;;;;;;;14.17;100.00;100884.56;5028016;28;20107;-73
2024/04/08 01:08:40;;;;;;;4.50;1.88;;;;;;;14.16;100.00;100893.34;5024935;28;20067;-73
2024/04/08 01:11:10;;;;;;;4.10;1.48;;;;;;;14.16;100.00;100885.53;5035580;28;20039;-73
2024/04/08 01:13:36;;;;;;;5.93;1.75;;;;;;;14.17;100.00;100878.53;5022947;28;20042;-73
2024/04/08 01:16:02;;;;;;;6.75;1.50;;;;;;;14.18;100.00;100872.31;5029263;28;20030;-73
2024/04/08 01:18:27;;;;;;;5.32;1.58;;;;;;;14.17;100.00;100870.72;5020699;28;20029;-73
2024/04/08 01:20:53;;;;;;;6.18;1.73;;;;;;;14.14;100.00;100851.00;5028771;28;20033;-73
2024/04/08 01:23:20;;;;;;;4.65;1.80;;;;;;;14.12;100.00;100836.53;5031027;28;20063;-73
2024/04/08 01:25:46;;;;;;;4.68;1.92;;;;;;;14.12;100.00;100844.38;5024907;28;20025;-72
2024/04/08 01:28:12;;;;;;;5.80;1.77;;;;;;;14.13;100.00;100848.59;5027492;28;20397;-73
2024/04/08 01:30:38;;;;;;;5.85;1.73;;;;;;;14.14;100.00;100845.78;5030220;28;20029;-73
2024/04/08 01:33:03;;;;;;;3.92;1.90;;;;;;;14.18;100.00;100852.31;5027480;28;20236;-73
2024/04/08 01:35:29;;;;;;;7.28;2.45;;;;;;;14.14;100.00;100850.22;5027255;28;20086;-73
2024/04/08 01:37:54;;;;;;;8.85;1.83;;;;;;;14.13;100.00;100851.22;5026962;28;20251;-73
2024/04/08 01:40:20;;;;;;;4.40;2.17;;;;;;;14.12;100.00;100839.16;5028979;28;20044;-74
2024/04/08 01:42:45;;;;;;;6.68;2.17;;;;;;;14.11;100.00;100822.69;5032906;28;20431;-74
2024/04/08 01:45:11;;;;;;;3.65;2.03;;;;;;;14.08;100.00;100810.00;5033953;28;20061;-73
2024/04/08 01:47:36;;;;;;;10.32;1.60;;;;;;;14.06;100.00;100808.59;5028389;28;20048;-73
2024/04/08 01:50:02;;;;;;;4.18;1.70;;;;;;;14.05;100.00;100806.94;5036093;28;20034;-73
2024/04/08 01:52:27;;;;;;;5.50;1.80;;;;;;;14.06;100.00;100813.78;5028677;28;20044;-73
2024/04/08 01:54:53;;;;;;;4.35;1.55;;;;;;;14.06;100.00;100805.97;5033913;28;20024;-74
2024/04/08 01:57:18;;;;;;;5.43;2.05;;;;;;;14.04;100.00;100800.94;5034073;28;20037;-74
2024/04/08 01:59:44;;;;;;;4.57;1.77;;;;;;;14.01;100.00;100799.50;5026274;28;20203;-73
2024/04/08 02:02:09;;;;;;;5.32;1.70;;;;;;;14.00;100.00;100808.31;5029359;28;20037;-73
2024/04/08 02:04:35;;;;;;;6.32;2.55;;;;;;;13.96;100.00;100804.44;5027924;28;20112;-73
2024/04/08 02:07:00;;;;;;;7.82;2.63;;;;;;;13.96;100.00;100814.06;5035710;28;20051;-73
2024/04/08 02:09:25;;;;;;;4.68;2.67;;;;;;;13.95;100.00;100809.81;5028161;28;20091;-73
2024/04/08 02:11:51;;;;;;;4.05;1.67;;;;;;;13.90;100.00;100817.34;5030753;28;20091;-74
2024/04/08 02:14:17;;;;;;;4.13;1.80;;;;;;;13.89;100.00;100821.75;5032184;28;20033;-73
2024/04/08 02:16:42;;;;;;;6.20;2.38;;;;;;;13.89;100.00;100816.56;5033943;28;20038;-73
2024/04/08 02:19:07;;;;;;;4.00;1.58;;;;;;;13.87;100.00;100821.13;5026885;28;20041;-74
2024/04/08 02:21:33;;;;;;;2.20;1.45;;;;;;;13.88;100.00;100820.16;5031382;28;20026;-73
2024/04/08 02:23:58;;;;;;;5.55;1.88;;;;;;;13.84;100.00;100813.66;5032121;28;20029;-73
2024/04/08 02:26:24;;;;;;;3.17;1.60;;;;;;;13.82;100.00;100802.59;5030092;28;21528;-73
2024/04/08 02:28:50;;;;;;;4.45;1.60;;;;;;;13.80;100.00;100794.94;5028455;28;20033;-73
2024/04/08 02:31:15;;;;;;;7.78;2.50;;;;;;;13.80;100.00;100796.75;5028027;28;20042;-73
2024/04/08 02:33:41;;;;;;;5.38;1.60;;;;;;;13.77;100.00;100797.13;5024201;28;20054;-72
2024/04/08 02:36:06;;;;;;;4.63;1.60;;;;;;;13.75;100.00;100789.50;5024258;28;20025;-73
2024/04/08 02:38:33;;;;;;;4.03;1.90;;;;;;;13.73;100.00;100796.66;5026795;28;20038;-73
2024/04/08 02:40:59;;;;;;;3.80;2.13;;;;;;;13.64;100.00;100800.34;5031296;28;20092;-73
2024/04/08 02:43:25;;;;;;;4.05;1.73;;;;;;;13.57;100.00;100799.41;5029563;28;20084;-72
2024/04/08 02:45:50;;;;;;;9.55;1.45;;;;;;;13.55;100.00;100794.38;5030858;28;20025;-73
2024/04/08 02:48:18;;;;;;;4.78;1.60;;;;;;;13.53;100.00;100798.16;5027884;28;20038;-73
2024/04/08 02:50:44;;;;;;;3.97;1.88;;;;;;;13.51;100.00;100795.72;5027637;28;20072;-73
2024/04/08 02:53:10;;;;;;;4.07;2.03;;;;;;;13.50;100.00;100791.47;5028672;28;20497;-73
2024/04/08 02:55:37;;;;;;;5.93;1.80;;;;;;;13.52;100.00;100789.50;5024885;28;20033;-73
2024/04/08 02:58:02;;;;;;;5.38;1.88;;;;;;;13.53;100.00;100779.91;5024621;28;20034;-73
2024/04/08 03:00:28;;;;;;;7.70;2.65;;;;;;;13.50;100.00;100775.84;5026361;28;20032;-73
2024/04/08 03:02:53;;;;;;;6.75;2.42;;;;;;;13.49;100.00;100769.03;5013093;28;20049;-73
2024/04/08 03:05:19;;;;;;;8.30;2.88;;;;;;;13.43;100.00;100761.94;5023432;28;20045;-73
2024/04/08 03:07:44;;;;;;;8.23;2.85;;;;;;;13.47;100.00;100757.97;5017409;28;20132;-73
2024/04/08 03:10:09;;;;;;;9.70;3.05;;;;;;;13.40;100.00;100746.63;5023725;28;20077;-73
2024/04/08 03:12:35;;;;;;;8.35;3.30;;;;;;;13.37;100.00;100744.38;5041442;28;20411;-73
2024/04/08 03:15:02;;;;;;;8.20;4.13;;;;;;;13.36;100.00;100751.38;5027836;28;20443;-73
2024/04/08 03:17:27;;;;;;;8.82;3.42;;;;;;;13.33;100.00;100745.72;5022029;28;20067;-73
2024/04/08 03:19:57;;;;;;;9.13;3.22;;;;;;;13.20;100.00;100747.09;5029265;28;20460;-73
2024/04/08 03:22:23;;;;;;;9.27;3.58;;;;;;;13.14;100.00;100741.75;5006811;28;20029;-73
2024/04/08 03:24:48;;;;;;;10.60;4.43;;;;;;;13.28;100.00;100740.19;5027185;28;20456;-73
2024/04/08 03:27:14;;;;;;;10.82;5.13;;;;;;;13.14;100.00;100734.75;5025320;28;20041;-73
2024/04/08 03:29:39;;;;;;;13.82;4.97;;;;;;;13.15;100.00;100728.56;5029796;28;20033;-73
2024/04/08 03:32:05;;;;;;;13.80;4.88;;;;;;;13.14;100.00;100726.94;5027789;28;20041;-73
2024/04/08 03:34:35;;;;;;;17.17;6.68;;;;;;;13.13;100.00;100733.16;5026129;28;20724;-72
2024/04/08 03:37:01;;;;;;;12.40;4.95;;;;;;;13.04;100.00;100731.59;5029276;28;20493;-73
2024/04/08 03:39:27;;;;;;;17.52;5.55;;;;;;;13.03;100.00;100728.19;5034406;28;20045;-74
2024/04/08 03:41:53;;;;;;;15.93;5.20;;;;;;;13.04;100.00;100735.00;5029396;28;20037;-73
2024/04/08 03:44:19;;;;;;;13.73;5.03;;;;;;;13.02;100.00;100738.75;5021456;28;20040;-73
2024/04/08 03:46:45;;;;;;;10.35;5.05;;;;;;;13.07;100.00;100733.03;5023542;28;20038;-72
2024/04/08 03:49:11;;;;;;;11.40;5.32;;;;;;;13.05;100.00;100731.41;5028970;28;20428;-72
2024/04/08 03:51:36;;;;;;;11.65;5.03;;;;;;;13.07;100.00;100726.00;5029979;28;20051;-73
2024/04/08 03:54:02;;;;;;;9.45;4.38;;;;;;;13.09;100.00;100731.06;5030420;28;20420;-73
2024/04/08 03:56:28;;;;;;;10.88;5.10;;;;;;;13.11;100.00;100729.91;5029499;28;20040;-73
2024/04/08 03:58:54;;;;;;;11.43;4.95;;;;;;;13.13;100.00;100735.75;5030558;28;20029;-72
2024/04/08 04:01:20;;;;;;;9.57;4.75;;;;;;;13.16;100.00;100742.41;5030200;28;20119;-73
2024/04/08 04:03:46;;;;;;;8.77;5.15;;;;;;;13.19;100.00;100740.25;5029044;28;20057;-73
2024/04/08 04:06:12;;;;;;;14.30;5.85;;;;;;;13.19;100.00;100757.69;5018653;28;20522;-73
2024/04/08 04:08:37;;;;;;;13.80;6.55;;;;;;;13.18;100.00;100751.63;5023794;28;20034;-73
2024/04/08 04:11:03;;;;;;;11.75;5.25;;;;;;;13.16;100.00;100735.38;5036341;28;20538;-73
2024/04/08 04:13:28;;;;;;;10.13;5.88;;;;;;;13.16;100.00;100730.19;5029672;28;20038;-73
2024/04/08 04:15:54;;;;;;;12.68;5.85;;;;;;;13.19;100.00;100731.66;5031110;28;20037;-73
2024/04/08 04:18:19;;;;;;;11.95;4.90;;;;;;;13.22;100.00;100729.50;5023342;28;20033;-73
2024/04/08 04:20:45;;;;;;;13.18;5.95;;;;;;;13.21;100.00;100730.47;5021149;28;20420;-72
2024/04/08 04:23:13;;;;;;;17.15;6.55;;;;;;;13.22;100.00;100734.72;5027353;28;20049;-73
2024/04/08 04:25:39;;;;;;;11.93;6.05;;;;;;;13.23;100.00;100717.28;5031788;28;20511;-73
2024/04/08 04:28:05;;;;;;;14.25;5.85;;;;;;;13.24;100.00;100721.50;5021892;28;20034;-73
2024/04/08 04:30:30;;;;;;;13.18;6.68;;;;;;;13.24;100.00;100716.28;5028964;28;20116;-73
2024/04/08 04:33:00;;;;;;;13.40;6.50;;;;;;;13.25;100.00;100720.53;5023640;28;20034;-73
2024/04/08 04:35:29;;;;;;;12.93;6.75;;;;;;;13.27;100.00;100718.56;5032494;28;20065;-73
2024/04/08 04:37:55;;;;;;;12.20;5.88;;;;;;;13.26;100.00;100714.34;5013833;28;20094;-72
2024/04/08 04:40:21;;;;;;;15.90;6.22;;;;;;;13.24;100.00;100711.91;5024209;28;20029;-73
2024/04/08 04:42:48;;;;;;;14.23;7.60;;;;;;;13.18;100.00;100709.97;5026490;28;20488;-72
2024/04/08 04:45:13;;;;;;;16.52;8.80;;;;;;;13.17;100.00;100707.59;5011149;28;20049;-72
2024/04/08 04:47:39;;;;;;;11.30;6.68;;;;;;;13.09;100.00;100708.47;5025258;28;20076;-72
2024/04/08 04:50:05;;;;;;;14.07;6.90;;;;;;;13.08;100.00;100719.03;5026726;28;20030;-73
2024/04/08 04:52:30;;;;;;;13.30;6.90;;;;;;;13.07;100.00;100709.59;5020425;28;20034;-72
2024/04/08 04:54:56;;;;;;;11.63;6.35;;;;;;;13.07;100.00;100717.41;5028278;28;20056;-72
2024/04/08 04:57:23;;;;;;;10.23;6.28;;;;;;;13.07;100.00;100720.81;5023235;28;20550;-72
2024/04/08 04:59:48;;;;;;;9.75;6.15;;;;;;;13.08;100.00;100713.84;5028932;28;20029;-73
2024/04/08 05:02:14;;;;;;;12.68;6.57;;;;;;;13.11;100.00;100718.66;5021566;28;20508;-73
2024/04/08 05:04:39;;;;;;;16.55;7.68;;;;;;;13.10;100.00;100717.88;5025436;28;20044;-72
2024/04/08 05:07:05;;;;;;;13.13;6.82;;;;;;;13.10;100.00;100707.47;5027702;28;20052;-73
2024/04/08 05:09:30;;;;;;;15.40;7.28;;;;;;;13.08;100.00;100709.44;5030679;28;20041;-73
2024/04/08 05:11:56;;;;;;;21.65;7.65;;;;;;;13.08;100.00;100713.84;5018025;28;20029;-72
2024/04/08 05:14:21;;;;;;;13.05;6.60;;;;;;;13.08;100.00;100706.03;5032958;28;20017;-73
2024/04/08 05:16:50;;;;;;;15.50;7.22;;;;;;;13.08;100.00;100711.22;5029817;28;20480;-72
2024/04/08 05:19:16;;;;;;;14.60;7.57;;;;;;;13.10;100.00;100714.47;5015038;28;20120;-73
2024/04/08 05:21:43;;;;;;;15.02;7.28;;;;;;;13.09;100.00;100708.47;5029891;28;20496;-73
2024/04/08 05:24:09;;;;;;;15.35;7.18;;;;;;;13.08;100.00;100706.81;5037599;28;20045;-72
2024/04/08 05:26:35;;;;;;;16.05;7.90;;;;;;;13.09;100.00;100720.63;5037486;28;20033;-73
2024/04/08 05:29:00;;;;;;;13.48;7.60;;;;;;;13.11;100.00;100714.28;5013510;28;20033;-72
2024/04/08 05:31:26;;;;;;;19.08;8.32;;;;;;;13.10;100.00;100706.66;5027361;28;20404;-73
2024/04/08 05:33:51;;;;;;;18.83;8.73;;;;;;;13.11;100.00;100710.84;5030239;28;20420;-73
2024/04/08 05:36:17;;;;;;;16.85;7.85;;;;;;;13.11;100.00;100714.28;5037925;28;20030;-72
2024/04/08 05:38:42;;;;;;;21.52;8.68;;;;;;;13.15;100.00;100727.78;5030798;28;20116;-73
2024/04/08 05:41:07;;;;;;;20.75;10.10;;;;;;;13.14;100.00;100736.56;5031401;28;20037;-72
2024/04/08 05:43:33;;;;;;;18.15;8.95;;;;;;;13.12;100.00;100739.31;5050109;28;20041;-72
2024/04/08 05:45:58;;;;;;;17.30;9.40;;;;;;;13.12;100.00;100743.72;5016460;28;20052;-73
2024/04/08 05:48:24;;;;;;;20.42;9.43;;;;;;;13.15;100.00;100746.00;5036121;28;20033;-72
2024/04/08 05:50:49;;;;;;;18.75;9.25;;;;;;;13.17;100.00;100739.63;5030170;28;20039;-73
2024/04/08 05:53:15;;;;;;;18.85;9.65;;;;;;;13.21;100.00;100734.88;5032437;28;20037;-72
2024/04/08 05:55:41;;;;;;;16.77;9.00;;;;;;;13.22;100.00;100736.47;5030668;28;20076;-73
2024/04/08 05:58:08;;;;;;;20.63;9.27;;;;;;;13.24;100.00;100731.91;5029670;28;20041;-72
2024/04/08 06:00:36;;;;;;;18.42;10.20;;;;;;;13.31;100.00;100725.06;5033360;28;20101;-72
2024/04/08 06:03:03;;;;;;;18.80;10.25;;;;;;;13.32;100.00;100726.69;5034440;28;20042;-73
2024/04/08 06:05:28;;;;;;;23.00;9.55;;;;;;;13.27;100.00;100723.75;5035942;28;20029;-73
2024/04/08 06:07:54;;;;;;;20.65;9.23;;;;;;;13.26;100.00;100706.53;5014490;28;20099;-72
2024/04/08 06:10:21;;;;;;;16.70;8.00;;;;;;;13.28;100.00;100709.78;5031481;28;20117;-73
2024/04/08 06:12:47;;;;;;;22.30;8.57;;;;;;;13.33;100.00;100707.44;5029156;28;20030;-72
2024/04/08 06:15:14;;;;;;;24.90;11.85;;;;;;;13.41;100.00;100691.78;5015559;28;20068;-72
2024/04/08 06:17:40;;;;;;;21.20;12.35;;;;;;;13.49;100.00;100680.47;5035251;28;20034;-73
2024/04/08 06:20:06;;;;;;;21.30;11.75;;;;;;;13.55;100.00;100684.16;5031691;28;20400;-73
2024/04/08 06:22:31;;;;;;;24.13;11.55;;;;;;;13.61;100.00;100689.44;5033068;28;20045;-73
2024/04/08 06:24:57;;;;;;;20.50;10.55;;;;;;;13.73;100.00;100674.19;5032236;28;20036;-73
2024/04/08 06:27:22;;;;;;;21.33;11.73;;;;;;;13.83;100.00;100669.53;5032149;28;20045;-72
2024/04/08 06:29:48;;;;;;;25.67;12.98;;;;;;;13.89;100.00;100669.78;5029393;28;20083;-72
2024/04/08 06:32:13;;;;;;;23.48;11.20;;;;;;;13.96;100.00;100661.06;5029021;28;20037;-72
2024/04/08 06:34:39;;;;;;;20.98;10.85;;;;;;;14.10;100.00;100662.03;5034215;28;20439;-73
2024/04/08 06:37:04;;;;;;;19.67;10.32;;;;;;;14.24;100.00;100665.63;5009355;28;20424;-72
2024/04/08 06:39:30;;;;;;;25.23;10.35;;;;;;;14.35;100.00;100664.31;5036311;28;20025;-73
2024/04/08 06:41:55;;;;;;;23.80;11.10;;;;;;;14.51;100.00;100671.13;5025380;28;20412;-73
2024/04/08 06:44:21;;;;;;;20.33;10.68;;;;;;;14.65;100.00;100685.13;5028180;28;20025;-72
2024/04/08 06:46:46;;;;;;;17.38;8.93;;;;;;;14.70;100.00;100673.13;5032623;28;20411;-73
2024/04/08 06:49:11;;;;;;;22.73;9.57;;;;;;;14.73;100.00;100674.56;5028335;28;20095;-72
2024/04/08 06:51:37;;;;;;;25.13;9.45;;;;;;;14.82;100.00;100677.88;5029489;28;20037;-72
2024/04/08 06:54:02;;;;;;;21.13;9.35;;;;;;;14.83;100.00;100676.88;5028949;28;20033;-73
2024/04/08 06:56:28;;;;;;;20.85;9.32;;;;;;;14.97;100.00;100674.22;5027456;28;20037;-73
2024/04/08 06:58:53;;;;;;;16.80;7.82;;;;;;;15.15;100.00;100670.31;5021942;28;20612;-72
2024/04/08 07:01:22;;;;;;;15.48;7.15;;;;;;;15.38;100.00;100676.13;5036526;28;20021;-72
2024/04/08 07:03:48;;;;;;;14.18;7.45;;;;;;;15.62;100.00;100686.34;5042482;28;20042;-72
2024/04/08 07:06:13;;;;;;;16.48;7.30;;;;;;;15.79;99.40;100692.09;5031893;28;20033;-72
2024/04/08 07:08:39;;;;;;;15.98;7.18;;;;;;;15.93;99.12;100694.56;5030271;28;20042;-73
2024/04/08 07:11:04;;;;;;;12.57;6.47;;;;;;;16.54;97.36;100687.75;5032988;28;20120;-72
2024/04/08 07:13:30;;;;;;;14.20;6.55;;;;;;;17.07;94.75;100674.75;5036982;28;20046;-72
2024/04/08 07:15:56;;;;;;;18.58;7.72;;;;;;;17.05;94.61;100668.13;5029300;28;20040;-72
2024/04/08 07:18:24;;;;;;;14.35;6.90;;;;;;;16.92;94.29;100659.22;5027718;28;20116;-72
2024/04/08 07:20:50;;;;;;;15.05;6.20;;;;;;;17.25;93.02;100660.22;5028634;28;20060;-72
2024/04/08 07:23:16;;;;;;;15.18;6.28;;;;;;;17.45;86.36;100660.22;5030969;28;20047;-73
2024/04/08 07:25:41;;;;;;;11.52;5.70;;;;;;;17.81;88.09;100651.03;5036569;28;20108;-72
2024/04/08 07:28:07;;;;;;;12.90;6.07;;;;;;;17.99;86.06;100650.38;5026310;28;20037;-72
2024/04/08 07:32:20;;;;;;;14.18;6.05;;;;;;;18.17;86.35;100655.75;5506955;25;22008;-73
2024/04/08 07:34:47;;;;;;;10.48;6.28;;;;;;;18.41;82.51;100656.84;5405292;26;20007;-73
2024/04/08 07:37:13;;;;;;;15.70;6.78;;;;;;;18.16;84.17;100653.31;5425325;26;20019;-73
2024/04/08 07:39:40;;;;;;;13.30;5.95;;;;;;;18.26;85.06;100653.69;5432821;26;20006;-73
2024/04/08 07:42:06;;;;;;;12.40;5.90;;;;;;;17.89;84.65;100653.44;5461179;26;20010;-73
2024/04/08 07:44:32;;;;;;;11.68;5.57;;;;;;;17.49;86.84;100659.56;5463433;26;20010;-73
2024/04/08 07:46:58;;;;;;;9.68;4.90;;;;;;;17.31;90.20;100664.69;5464472;25;20010;-74
2024/04/08 07:49:24;;;;;;;10.02;4.95;;;;;;;17.01;90.34;100662.47;5464924;26;20459;-74
2024/04/08 07:51:50;;;;;;;10.65;4.90;;;;;;;16.86;92.43;100660.03;5465856;26;20482;-74
2024/04/08 07:54:16;;;;;;;12.35;5.35;;;;;;;17.10;93.09;100663.88;5465917;26;20021;-74
2024/04/08 07:56:42;;;;;;;10.60;5.10;;;;;;;17.88;89.62;100649.22;5424307;26;20238;-74
2024/04/08 07:59:08;;;;;;;14.98;5.75;;;;;;;18.48;85.76;100641.84;5429817;26;20016;-74
2024/04/08 08:01:34;;;;;;;9.88;4.35;;;;;;;19.06;80.10;100642.66;5428086;26;20387;-73
2024/04/08 08:04:00;;;;;;;14.30;4.57;;;;;;;19.18;78.90;100640.13;5459259;26;20017;-74
2024/04/08 08:06:26;;;;;;;9.65;3.90;;;;;;;19.30;79.41;100635.75;5457334;26;20006;-74
2024/04/08 08:08:52;;;;;;;10.82;4.32;;;;;;;19.88;73.55;100637.16;5423279;26;20452;-74
2024/04/08 08:11:18;;;;;;;12.75;4.40;;;;;;;20.02;73.86;100636.00;5428868;26;20058;-74
2024/04/08 08:13:44;;;;;;;11.95;4.57;;;;;;;20.40;71.25;100634.84;5429191;25;20010;-74
2024/04/08 08:16:10;;;;;;;8.55;4.35;;;;;;;20.77;69.84;100641.81;5462228;26;20007;-74
2024/04/08 08:18:36;;;;;;;10.30;4.50;;;;;;;20.66;68.65;100634.69;5463365;26;20010;-72
2024/04/08 08:21:05;;;;;;;11.65;5.28;;;;;;;20.74;67.96;100631.75;5437813;26;20003;-73
2024/04/08 08:23:31;;;;;;;12.60;5.63;;;;;;;20.95;66.60;100633.03;5466987;25;20026;-72
2024/04/08 08:25:58;;;;;;;14.38;5.43;;;;;;;21.17;65.84;100623.50;5422375;26;20470;-73
2024/04/08 08:28:24;;;;;;;11.35;5.70;;;;;;;21.35;65.81;100630.47;5458182;25;20018;-72
2024/04/08 08:30:52;;;;;;;11.65;4.88;;;;;;;20.92;66.46;100620.31;5435026;26;20374;-72
2024/04/08 08:33:21;;;;;;;9.98;4.80;;;;;;;21.27;66.10;100628.19;5430966;26;20042;-72
2024/04/08 08:35:47;;;;;;;13.82;5.65;;;;;;;21.19;64.69;100632.00;5433083;26;19998;-73
2024/04/08 08:38:13;;;;;;;9.50;4.40;;;;;;;21.11;64.25;100629.69;5425996;26;21019;-72
2024/04/08 08:40:48;;;;;;;8.00;4.88;;;;;;;20.92;65.46;100630.84;5431084;26;20353;-72
2024/04/08 08:43:15;;;;;;;12.55;5.20;;;;;;;20.57;66.65;100636.84;5414489;26;20011;-73
2024/04/08 08:45:47;;;;;;;8.82;4.25;;;;;;;20.90;nan;100633.69;5411014;26;20006;-75
2024/04/08 08:48:14;;;;;;;12.02;4.53;;;;;;;20.94;66.11;100626.94;5408360;26;20080;-74
2024/04/08 08:50:44;;;;;;;9.95;4.93;;;;;;;21.05;64.23;100627.19;5450191;26;20339;-74
2024/04/08 08:53:11;;;;;;;10.30;4.07;;;;;;;20.83;65.78;100625.09;5446338;26;20030;-73
2024/04/08 08:55:37;;;;;;;13.60;4.18;;;;;;;21.15;63.78;100616.84;5453955;26;20804;-74
2024/04/08 08:58:05;;;;;;;10.02;4.32;;;;;;;21.34;64.91;100622.78;5410215;26;20075;-73
2024/04/08 09:00:31;;;;;;;9.13;4.47;;;;;;;21.42;64.62;100619.00;5409393;26;20014;-74
2024/04/08 09:02:58;;;;;;;13.85;5.00;;;;;;;21.14;64.65;100620.53;5446031;26;20375;-74
2024/04/08 09:05:24;;;;;;;13.50;4.72;;;;;;;21.56;64.79;100628.28;5404350;26;20026;-74
2024/04/08 09:07:51;;;;;;;9.10;4.40;;;;;;;21.76;64.45;100620.78;5416040;26;20015;-74
2024/04/08 09:10:17;;;;;;;9.40;3.85;;;;;;;21.80;63.82;100623.75;5454072;26;20011;-74
2024/04/08 09:12:43;;;;;;;11.80;4.97;;;;;;;21.64;64.86;100632.41;5445006;26;20011;-73
2024/04/08 09:15:13;;;;;;;9.10;4.28;;;;;;;21.69;64.40;100640.41;5416607;26;20017;-74
2024/04/08 09:17:39;;;;;;;15.35;4.93;;;;;;;21.23;66.84;100632.34;5442950;26;20052;-74
2024/04/08 09:20:05;;;;;;;14.30;4.90;;;;;;;21.29;65.61;100631.41;5440412;26;20050;-74
2024/04/08 09:22:32;;;;;;;12.48;5.55;;;;;;;21.27;65.83;100627.41;5445354;26;20534;-74
2024/04/08 09:24:58;;;;;;;11.27;5.25;;;;;;;21.28;67.32;100631.63;5447924;26;20015;-74
2024/04/08 09:27:24;;;;;;;11.98;5.35;;;;;;;21.11;66.55;100642.88;5385269;26;20052;-74
2024/04/08 09:29:50;;;;;;;13.10;5.68;;;;;;;20.75;67.99;100641.25;5417444;26;20007;-74
2024/04/08 09:32:16;;;;;;;16.48;5.53;;;;;;;21.04;68.57;100630.84;5448553;26;20022;-73
2024/04/08 09:34:42;;;;;;;11.07;4.82;;;;;;;21.46;68.11;100622.81;5442769;26;19998;-74
2024/04/08 09:37:12;;;;;;;10.30;5.88;;;;;;;21.50;66.65;100626.59;5440106;26;20471;-74
2024/04/08 09:39:40;;;;;;;17.88;6.68;;;;;;;21.54;65.99;100622.44;5447760;26;20416;-74
2024/04/08 09:42:10;;;;;;;14.05;6.60;;;;;;;21.42;66.39;100611.06;5389126;26;21030;-74
2024/04/08 09:44:38;;;;;;;13.23;6.90;;;;;;;21.43;63.97;100620.59;5419253;26;20022;-74
2024/04/08 09:47:05;;;;;;;15.65;6.32;;;;;;;21.28;66.99;100618.44;5442955;26;20431;-74
2024/04/08 09:49:32;;;;;;;15.10;5.90;;;;;;;21.43;66.84;100615.34;5412873;26;20011;-74
2024/04/08 09:52:00;;;;;;;14.27;6.78;;;;;;;21.52;67.20;100621.88;5421264;26;20003;-74
2024/04/08 09:54:26;;;;;;;11.38;7.03;;;;;;;21.55;66.02;100602.97;5417891;26;20055;-75
2024/04/08 09:57:02;;;;;;;13.10;7.25;;;;;;;21.30;66.09;100603.19;5418144;26;20034;-74
2024/04/08 09:59:29;;;;;;;15.70;6.43;;;;;;;21.13;66.77;100590.72;5418422;26;20012;-74
2024/04/08 10:01:58;;;;;;;12.10;5.82;;;;;;;21.07;67.34;100594.28;5446266;26;20338;-74
2024/04/08 10:04:24;;;;;;;14.57;6.63;;;;;;;21.16;68.38;100585.00;5455165;26;20003;-74
2024/04/08 10:06:51;;;;;;;12.57;5.80;;;;;;;21.11;68.75;100581.44;5440250;26;20010;-74
2024/04/08 10:09:20;;;;;;;17.20;5.85;;;;;;;21.07;69.46;100577.66;5414986;26;20243;-74
2024/04/08 10:11:50;;;;;;;14.90;6.30;;;;;;;21.00;67.99;100585.69;5418641;26;20018;-74
2024/04/08 10:14:23;;;;;;;12.00;5.38;;;;;;;21.23;70.02;100576.16;5446750;26;20007;-75
2024/04/08 10:16:53;;;;;;;12.90;5.63;;;;;;;21.11;68.47;100587.50;5451481;26;20053;-74
2024/04/08 10:19:22;;;;;;;11.73;5.30;;;;;;;21.32;67.54;100587.94;5452636;26;20023;-74
2024/04/08 10:21:52;;;;;;;15.88;5.78;;;;;;;21.49;66.58;100588.88;5445315;26;20043;-74
2024/04/08 10:24:32;;;;;;;11.70;6.22;;;;;;;21.54;68.57;100588.94;5453777;26;20573;-75
2024/04/08 10:27:08;;;;;;;19.33;6.43;;;;;;;21.43;67.73;100583.69;5434802;26;20011;-74
2024/04/08 10:29:38;;;;;;;20.70;7.03;;;;;;;21.69;63.83;100585.03;5384518;26;20068;-74
2024/04/08 10:32:06;;;;;;;13.55;5.45;;;;;;;21.77;66.04;100572.25;5444331;26;20425;-74
2024/04/08 10:34:35;;;;;;;14.63;5.95;;;;;;;21.63;66.25;100573.56;5443516;26;20078;-74
2024/04/08 10:37:01;;;;;;;16.92;6.10;;;;;;;21.64;66.42;100566.44;5444526;26;20030;-74
2024/04/08 10:39:27;;;;;;;15.57;6.55;;;;;;;21.57;66.56;100556.06;5412393;26;20006;-74
2024/04/08 10:41:55;;;;;;;15.02;6.43;;;;;;;21.66;66.14;100551.19;5443670;26;20002;-75
2024/04/08 10:44:21;;;;;;;15.07;6.45;;;;;;;21.86;67.14;100550.75;5445419;26;20002;-74
2024/04/08 10:46:47;;;;;;;10.32;5.32;;;;;;;21.83;65.63;100548.59;5436933;26;20010;-74
2024/04/08 10:49:13;;;;;;;10.73;4.60;;;;;;;21.87;65.08;100541.78;5441199;26;20021;-74
2024/04/08 10:51:40;;;;;;;12.85;6.13;;;;;;;21.71;66.42;100501.94;5411785;26;20006;-76
2024/04/08 10:54:06;;;;;;;12.18;6.22;;;;;;;21.67;66.88;100492.91;5410983;26;20349;-75
2024/04/08 10:56:31;;;;;;;21.02;6.43;;;;;;;21.36;68.26;100521.34;5410359;26;20025;-74
2024/04/08 10:58:57;;;;;;;16.15;5.80;;;;;;;21.22;68.21;100538.44;5438415;26;20476;-74
2024/04/08 11:01:25;;;;;;;12.40;5.38;;;;;;;21.47;67.30;100564.53;5439884;26;20015;-74
2024/04/08 11:03:52;;;;;;;9.23;4.90;;;;;;;21.89;63.92;100563.50;5441605;26;20007;-74
2024/04/08 11:06:18;;;;;;;11.18;5.25;;;;;;;22.11;62.35;100547.75;5436240;26;20851;-74
2024/04/08 11:08:44;;;;;;;15.63;4.95;;;;;;;22.39;64.02;100540.84;5404296;26;20014;-74
2024/04/08 11:11:10;;;;;;;11.13;4.90;;;;;;;22.59;63.73;100548.28;5443567;26;20376;-74